createdAt,value
2022-12-05T00:00:53.755Z,33.67
2022-12-05T00:03:20.552Z,36.85
2022-12-05T00:05:47.217Z,35.97
2022-12-05T00:08:13.812Z,34.42
2022-12-05T00:10:40.676Z,35.80
2022-12-05T00:13:07.773Z,34.65
2022-12-05T00:15:41.182Z,34.92
2022-12-05T00:18:07.753Z,36.50
2022-12-05T00:20:34.521Z,34.63
2022-12-05T00:23:01.445Z,33.17
2022-12-05T00:25:28.310Z,33.42
2022-12-05T00:27:54.800Z,35.03
2022-12-05T00:30:21.325Z,34.92
2022-12-05T00:32:47.787Z,33.75
2022-12-05T00:35:14.506Z,32.75
2022-12-05T00:37:40.996Z,31.70
2022-12-05T00:40:08.021Z,33.45
2022-12-05T00:42:34.523Z,32.47
2022-12-05T00:45:01.010Z,31.98
2022-12-05T00:47:27.499Z,30.88
2022-12-05T00:49:53.985Z,33.03
2022-12-05T00:52:20.469Z,32.92
2022-12-05T00:54:47.044Z,32.90
2022-12-05T00:57:15.587Z,32.60
2022-12-05T00:59:42.141Z,31.77
2022-12-05T01:02:08.772Z,33.28
2022-12-05T01:04:35.254Z,30.95
2022-12-05T01:07:01.864Z,32.22
2022-12-05T01:09:28.343Z,32.72
2022-12-05T01:11:55.032Z,29.60
2022-12-05T01:14:24.240Z,30.52
2022-12-05T01:16:52.471Z,30.20
2022-12-05T01:19:23.651Z,30.52
2022-12-05T01:21:50.865Z,30.33
2022-12-05T01:24:18.918Z,30.05
2022-12-05T01:26:46.090Z,30.70
2022-12-05T01:29:14.656Z,29.23
2022-12-05T01:31:41.888Z,29.90
2022-12-05T01:34:12.045Z,27.63
2022-12-05T01:36:39.400Z,27.63
2022-12-05T01:39:07.440Z,28.48
2022-12-05T01:41:38.481Z,30.35
2022-12-05T01:44:07.617Z,28.35
2022-12-05T01:46:39.449Z,28.65
2022-12-05T01:49:18.248Z,27.17
2022-12-05T01:51:49.738Z,27.52
2022-12-05T01:54:17.441Z,29.25
2022-12-05T01:56:47.763Z,29.15
2022-12-05T01:59:14.408Z,26.52
2022-12-05T02:01:41.359Z,28.02
2022-12-05T02:04:08.855Z,27.05
2022-12-05T02:06:35.370Z,28.13
2022-12-05T02:09:02.189Z,25.58
2022-12-05T02:11:30.078Z,26.67
2022-12-05T02:14:38.175Z,26.08
2022-12-05T02:17:30.329Z,25.30
2022-12-05T02:20:18.141Z,26.70
2022-12-05T02:23:17.141Z,27.17
2022-12-05T02:25:52.958Z,25.38
2022-12-05T02:28:56.288Z,26.60
2022-12-05T02:31:35.007Z,26.83
2022-12-05T02:34:17.117Z,27.85
2022-12-05T02:37:00.610Z,27.17
2022-12-05T02:39:33.877Z,26.67
2022-12-05T02:42:05.115Z,26.08
2022-12-05T02:44:37.494Z,25.88
2022-12-05T02:47:04.954Z,26.52
2022-12-05T02:49:33.708Z,25.77
2022-12-05T02:52:02.899Z,26.10
2022-12-05T02:54:36.659Z,25.83
2022-12-05T02:57:04.605Z,24.40
2022-12-05T02:59:31.210Z,28.27
2022-12-05T03:01:57.701Z,26.85
2022-12-05T03:04:25.773Z,26.17
2022-12-05T03:06:58.073Z,26.65
2022-12-05T03:09:35.690Z,26.13
2022-12-05T03:12:16.519Z,27.38
2022-12-05T03:14:55.063Z,26.27
2022-12-05T03:17:29.393Z,27.15
2022-12-05T03:20:08.191Z,25.40
2022-12-05T03:22:49.342Z,25.40
2022-12-05T03:25:16.469Z,24.73
2022-12-05T03:28:24.724Z,25.52
2022-12-05T03:30:53.776Z,25.33
2022-12-05T03:33:23.898Z,25.80
2022-12-05T03:36:03.739Z,26.80
2022-12-05T03:38:35.926Z,27.88
2022-12-05T03:41:10.123Z,26.65
2022-12-05T03:44:08.354Z,24.50
2022-12-05T03:46:41.082Z,25.33
2022-12-05T03:49:41.158Z,25.27
2022-12-05T03:52:17.315Z,25.15
2022-12-05T03:54:51.852Z,25.50
2022-12-05T03:57:23.068Z,24.75
2022-12-05T03:59:56.830Z,25.30
2022-12-05T04:02:29.148Z,25.90
2022-12-05T04:05:04.864Z,27.95
2022-12-05T04:07:34.078Z,26.08
2022-12-05T04:10:03.940Z,26.63
2022-12-05T04:12:31.328Z,26.30
2022-12-05T04:15:00.537Z,26.98
2022-12-05T04:17:50.470Z,27.30
2022-12-05T04:20:48.106Z,25.63
2022-12-05T04:23:14.688Z,25.70
2022-12-05T04:26:15.382Z,26.52
2022-12-05T04:28:49.925Z,26.60
2022-12-05T04:31:25.423Z,24.83
2022-12-05T04:34:05.360Z,26.38
2022-12-05T04:36:34.862Z,26.58
2022-12-05T04:39:25.930Z,25.52
2022-12-05T04:41:55.794Z,26.67
2022-12-05T04:44:26.598Z,25.17
2022-12-05T04:46:55.310Z,26.92
2022-12-05T04:49:24.043Z,26.10
2022-12-05T04:51:52.552Z,27.50
2022-12-05T04:54:31.879Z,26.70
2022-12-05T04:57:12.871Z,25.27
2022-12-05T04:59:39.412Z,25.83
2022-12-05T05:02:09.268Z,26.23
2022-12-05T05:04:38.822Z,26.67
2022-12-05T05:07:10.058Z,26.13
2022-12-05T05:09:37.108Z,26.48
2022-12-05T05:12:04.396Z,26.70
2022-12-05T05:14:31.082Z,25.08
2022-12-05T05:16:57.841Z,24.95
2022-12-05T05:19:24.567Z,26.10
2022-12-05T05:21:51.408Z,26.05
2022-12-05T05:24:18.581Z,24.88
2022-12-05T05:26:46.070Z,25.33
2022-12-05T05:29:13.330Z,25.45
2022-12-05T05:31:40.197Z,24.15
2022-12-05T05:34:09.703Z,26.23
2022-12-05T05:36:37.174Z,26.15
2022-12-05T05:39:05.099Z,26.83
2022-12-05T05:41:34.199Z,25.73
2022-12-05T05:44:01.435Z,23.98
2022-12-05T05:46:30.829Z,26.50
2022-12-05T05:48:57.833Z,23.63
2022-12-05T05:51:27.925Z,26.67
2022-12-05T05:53:54.442Z,23.67
2022-12-05T05:56:22.216Z,25.02
2022-12-05T05:58:54.911Z,25.70
2022-12-05T06:01:21.634Z,25.25
2022-12-05T06:03:48.619Z,27.30
2022-12-05T06:06:15.315Z,25.95
2022-12-05T06:08:43.484Z,27.10
2022-12-05T06:11:12.735Z,25.42
2022-12-05T06:13:39.678Z,27.05
2022-12-05T06:16:07.960Z,25.70
2022-12-05T06:18:35.133Z,26.65
2022-12-05T06:21:02.239Z,27.55
2022-12-05T06:23:28.747Z,25.25
2022-12-05T06:25:56.632Z,26.58
2022-12-05T06:28:24.876Z,26.10
2022-12-05T06:30:51.596Z,25.73
2022-12-05T06:33:18.354Z,28.33
2022-12-05T06:35:44.873Z,28.92
2022-12-05T06:38:11.372Z,28.13
2022-12-05T06:40:42.650Z,27.95
2022-12-05T06:43:09.475Z,29.15
2022-12-05T06:45:38.330Z,28.00
2022-12-05T06:48:05.064Z,29.58
2022-12-05T06:50:31.570Z,27.83
2022-12-05T06:52:58.049Z,29.15
2022-12-05T06:55:24.583Z,27.88
2022-12-05T06:57:51.124Z,28.05
2022-12-05T07:00:36.456Z,30.40
2022-12-05T07:03:02.980Z,27.27
2022-12-05T07:05:29.478Z,28.50
2022-12-05T07:07:56.083Z,30.00
2022-12-05T07:10:22.688Z,30.13
2022-12-05T07:12:49.257Z,28.60
2022-12-05T07:15:15.791Z,32.67
2022-12-05T07:17:42.261Z,31.70
2022-12-05T07:20:10.408Z,32.80
2022-12-05T07:22:37.467Z,27.85
2022-12-05T07:25:04.554Z,27.33
2022-12-05T07:27:31.151Z,32.72
2022-12-05T07:29:58.014Z,26.60
2022-12-05T07:32:24.692Z,27.75
2022-12-05T07:34:55.175Z,27.05
2022-12-05T07:37:22.196Z,32.22
2022-12-05T07:39:48.703Z,28.20
2022-12-05T07:42:15.167Z,27.88
2022-12-05T07:44:41.643Z,28.15
2022-12-05T07:47:08.198Z,27.75
2022-12-05T07:49:34.727Z,25.63
2022-12-05T07:52:01.228Z,26.88
2022-12-05T07:54:27.755Z,28.70
2022-12-05T07:56:54.417Z,29.50
2022-12-05T07:59:20.959Z,23.35
2022-12-05T08:01:47.575Z,26.88
2022-12-05T08:04:15.702Z,26.58
2022-12-05T08:06:42.778Z,26.83
2022-12-05T08:09:09.293Z,20.77
2022-12-05T08:11:36.228Z,22.75
2022-12-05T08:14:04.437Z,24.85
2022-12-05T08:16:32.207Z,21.70
2022-12-05T08:19:02.085Z,21.73
2022-12-05T08:21:28.884Z,20.98
2022-12-05T08:23:55.517Z,23.45
2022-12-05T08:26:24.757Z,23.40
2022-12-05T08:28:57.255Z,20.90
2022-12-05T08:31:24.765Z,19.35
2022-12-05T08:33:55.608Z,19.60
2022-12-05T08:36:25.414Z,20.90
2022-12-05T08:39:05.733Z,20.63
2022-12-05T08:41:32.828Z,17.33
2022-12-05T08:44:03.217Z,20.88
2022-12-05T08:46:30.826Z,16.95
2022-12-05T08:48:57.464Z,18.92
2022-12-05T08:51:24.001Z,16.83
2022-12-05T08:53:50.650Z,18.65
2022-12-05T08:56:19.843Z,15.88
2022-12-05T08:58:48.814Z,18.98
2022-12-05T09:01:18.831Z,18.48
2022-12-05T09:03:48.040Z,16.58
2022-12-05T09:06:21.542Z,17.92
2022-12-05T09:08:49.202Z,16.38
2022-12-05T09:11:18.173Z,17.77
2022-12-05T09:13:45.324Z,17.95
2022-12-05T09:16:17.092Z,16.15
2022-12-05T09:18:44.427Z,16.30
2022-12-05T09:21:19.554Z,17.27
2022-12-05T09:26:15.630Z,14.95
2022-12-05T09:28:43.426Z,17.40
2022-12-05T09:31:12.076Z,15.15
2022-12-05T09:33:38.998Z,16.15
2022-12-05T09:36:07.007Z,17.15
2022-12-05T09:38:33.607Z,16.42
2022-12-05T09:41:57.878Z,16.48
2022-12-05T09:44:47.380Z,16.02
2022-12-05T09:47:23.180Z,15.00
2022-12-05T09:50:01.904Z,16.10
2022-12-05T09:52:37.798Z,15.23
2022-12-05T09:55:13.848Z,15.57
2022-12-05T09:57:49.492Z,13.52
2022-12-05T10:00:16.774Z,15.50
2022-12-05T10:03:02.043Z,15.20
2022-12-05T10:05:45.954Z,14.80
2022-12-05T10:08:26.847Z,13.38
2022-12-05T10:10:59.286Z,13.02
2022-12-05T10:14:14.350Z,13.98
2022-12-05T10:16:49.923Z,13.77
2022-12-05T10:19:22.491Z,12.57
2022-12-05T10:22:05.103Z,11.73
2022-12-05T10:24:43.879Z,12.80
2022-12-05T10:27:38.226Z,13.02
2022-12-05T10:30:15.026Z,11.40
2022-12-05T10:32:54.459Z,14.20
2022-12-05T10:35:35.714Z,10.55
2022-12-05T10:38:16.808Z,11.90
2022-12-05T10:40:46.382Z,12.50
2022-12-05T10:43:16.018Z,10.57
2022-12-05T10:45:47.363Z,11.40
2022-12-05T10:48:18.894Z,12.32
2022-12-05T10:50:48.721Z,10.75
2022-12-05T10:53:26.261Z,11.45
2022-12-05T10:56:28.839Z,11.43
2022-12-05T10:58:55.728Z,11.32
2022-12-05T11:01:23.290Z,11.13
2022-12-05T11:04:00.190Z,11.02
2022-12-05T11:06:29.236Z,11.32
2022-12-05T11:09:06.187Z,12.18
2022-12-05T11:11:34.265Z,11.27
2022-12-05T11:14:06.510Z,11.57
2022-12-05T11:16:36.415Z,11.40
2022-12-05T11:19:36.340Z,11.68
2022-12-05T11:22:04.886Z,11.15
2022-12-05T11:24:35.540Z,12.07
2022-12-05T11:27:17.172Z,11.93
2022-12-05T11:29:45.528Z,11.57
2022-12-05T11:32:20.623Z,12.27
2022-12-05T11:34:48.436Z,11.75
2022-12-05T11:37:23.592Z,12.35
2022-12-05T11:42:25.323Z,10.60
2022-12-05T11:45:02.283Z,10.13
2022-12-05T11:47:48.383Z,10.15
2022-12-05T11:50:33.297Z,9.93
2022-12-05T11:53:18.114Z,9.85
2022-12-05T11:55:54.526Z,9.20
2022-12-05T11:58:56.665Z,10.27
2022-12-05T12:01:51.812Z,10.13
2022-12-05T12:04:55.686Z,10.63
2022-12-05T12:07:39.967Z,10.00
2022-12-05T12:10:21.535Z,10.10
2022-12-05T12:13:03.131Z,9.10
2022-12-05T12:15:32.635Z,8.88
2022-12-05T12:18:13.004Z,9.57
2022-12-05T12:20:49.424Z,10.98
2022-12-05T12:23:43.618Z,9.48
2022-12-05T12:26:31.349Z,9.38
2022-12-05T12:29:16.613Z,9.23
2022-12-05T12:32:21.339Z,9.40
2022-12-05T12:35:01.341Z,9.15
2022-12-05T12:37:52.814Z,9.73
2022-12-05T12:40:21.811Z,8.77
2022-12-05T12:43:21.135Z,9.07
2022-12-05T12:46:11.460Z,9.98
2022-12-05T12:48:46.773Z,9.25
2022-12-05T12:54:10.812Z,9.60
2022-12-05T12:56:47.148Z,9.27
2022-12-05T12:59:33.740Z,9.52
2022-12-05T13:02:12.980Z,8.82
2022-12-05T13:04:57.331Z,8.70
2022-12-05T13:07:45.787Z,9.35
2022-12-05T13:10:21.083Z,8.98
2022-12-05T13:15:16.859Z,9.38
2022-12-05T13:17:46.197Z,9.35
2022-12-05T13:20:22.118Z,8.63
2022-12-05T13:22:50.544Z,9.38
2022-12-05T13:25:18.506Z,9.30
2022-12-05T13:28:26.630Z,8.98
2022-12-05T13:31:02.528Z,10.38
2022-12-05T13:33:35.726Z,10.95
2022-12-05T13:36:47.256Z,9.40
2022-12-05T13:39:31.990Z,8.63
2022-12-05T13:42:17.470Z,9.60
2022-12-05T13:47:39.588Z,10.05
2022-12-05T13:50:34.795Z,10.02
2022-12-05T13:53:05.537Z,10.90
2022-12-05T13:55:39.210Z,11.25
2022-12-05T13:58:24.109Z,10.90
2022-12-05T14:00:51.492Z,11.10
2022-12-05T14:03:37.966Z,11.25
2022-12-05T14:06:04.903Z,11.50
2022-12-05T14:08:31.583Z,12.23
2022-12-05T14:10:58.033Z,11.57
2022-12-05T14:13:25.377Z,12.82
2022-12-05T14:15:52.600Z,11.52
2022-12-05T14:18:43.978Z,11.38
2022-12-05T14:21:48.214Z,12.25
2022-12-05T14:24:39.903Z,13.18
2022-12-05T14:27:41.243Z,14.10
2022-12-05T14:30:20.090Z,15.32
2022-12-05T14:32:46.738Z,15.63
2022-12-05T14:35:15.151Z,14.52
2022-12-05T14:37:53.725Z,14.88
2022-12-05T14:40:39.571Z,16.20
2022-12-05T14:43:08.475Z,15.30
2022-12-05T14:45:37.274Z,15.50
2022-12-05T14:48:06.653Z,14.82
2022-12-05T14:50:45.987Z,15.25
2022-12-05T14:53:15.998Z,16.30
2022-12-05T14:55:44.713Z,16.05
2022-12-05T14:58:40.172Z,15.18
2022-12-05T15:01:09.356Z,20.02
2022-12-05T15:03:38.738Z,16.08
2022-12-05T15:06:06.987Z,16.48
2022-12-05T15:08:50.038Z,16.52
2022-12-05T15:11:28.344Z,16.00
2022-12-05T15:14:17.562Z,14.52
2022-12-05T15:16:45.629Z,14.38
2022-12-05T15:19:19.201Z,13.68
2022-12-05T15:21:56.662Z,13.05
2022-12-05T15:24:23.484Z,11.60
2022-12-05T15:26:54.505Z,10.00
2022-12-05T15:29:21.029Z,11.25
2022-12-05T15:31:52.604Z,10.27
2022-12-05T15:34:41.908Z,10.82
2022-12-05T15:37:20.489Z,11.20
2022-12-05T15:39:58.769Z,11.00
2022-12-05T15:42:51.795Z,12.55
2022-12-05T15:45:26.387Z,12.77
2022-12-05T15:48:08.121Z,12.48
2022-12-05T15:50:40.962Z,13.07
2022-12-05T15:53:17.551Z,12.45
2022-12-05T15:55:47.323Z,12.77
2022-12-05T15:58:28.647Z,12.55
2022-12-05T16:01:06.835Z,11.30
2022-12-05T16:03:42.372Z,11.98
2022-12-05T16:06:36.553Z,11.48
2022-12-05T16:09:15.133Z,11.93
2022-12-05T16:11:56.791Z,11.50
2022-12-05T16:14:57.823Z,10.85
2022-12-05T16:17:15.340Z,11.38
2022-12-05T16:19:42.367Z,10.27
2022-12-05T16:22:29.980Z,10.35
2022-12-05T16:25:01.180Z,9.82
2022-12-05T16:27:36.273Z,10.13
2022-12-05T16:30:11.903Z,9.13
2022-12-05T16:32:42.361Z,9.98
2022-12-05T16:35:27.728Z,9.00
2022-12-05T16:38:19.675Z,8.77
2022-12-05T16:40:46.113Z,8.65
2022-12-05T16:43:30.298Z,9.55
2022-12-05T16:46:25.497Z,9.43
2022-12-05T16:49:20.003Z,8.82
2022-12-05T16:52:08.632Z,9.05
2022-12-05T16:54:35.412Z,9.77
2022-12-05T16:57:02.340Z,9.63
2022-12-05T16:59:37.253Z,9.57
2022-12-05T17:02:07.193Z,8.88
2022-12-05T17:04:33.909Z,8.98
2022-12-05T17:07:00.512Z,8.45
2022-12-05T17:09:27.228Z,8.65
2022-12-05T17:12:02.516Z,11.13
2022-12-05T17:14:29.111Z,9.38
2022-12-05T17:16:55.613Z,8.25
2022-12-05T17:19:23.098Z,8.10
2022-12-05T17:21:49.801Z,8.02
2022-12-05T17:24:17.595Z,7.90
2022-12-05T17:26:45.019Z,7.40
2022-12-05T17:29:12.191Z,7.50
2022-12-05T17:31:39.267Z,7.63
2022-12-05T17:34:13.902Z,7.38
2022-12-05T17:36:40.494Z,7.88
2022-12-05T17:39:08.819Z,7.70
2022-12-05T17:41:35.749Z,8.13
2022-12-05T17:44:03.175Z,7.85
2022-12-05T17:46:29.888Z,8.50
2022-12-05T17:48:56.492Z,8.25
2022-12-05T17:51:23.435Z,7.63
2022-12-05T17:53:49.975Z,7.47
2022-12-05T17:56:16.564Z,7.70
2022-12-05T17:58:43.191Z,7.70
2022-12-05T18:01:14.820Z,8.30
2022-12-05T18:03:41.439Z,7.75
2022-12-05T18:06:08.302Z,8.57
2022-12-05T18:08:34.819Z,8.30
2022-12-05T18:11:01.337Z,10.57
2022-12-05T18:13:27.794Z,8.15
2022-12-05T18:15:58.286Z,12.38
2022-12-05T18:18:27.388Z,16.63
2022-12-05T18:20:53.951Z,11.23
2022-12-05T18:23:20.480Z,10.15
2022-12-05T18:25:57.143Z,9.80
2022-12-05T18:28:23.754Z,19.15
2022-12-05T18:30:50.284Z,9.23
2022-12-05T18:33:16.818Z,11.75
2022-12-05T18:35:43.317Z,23.90
2022-12-05T18:38:10.807Z,21.55
2022-12-05T18:40:37.383Z,21.60
2022-12-05T18:43:05.154Z,17.88
2022-12-05T18:45:31.688Z,12.18
2022-12-05T18:48:09.873Z,13.77
2022-12-05T18:50:44.934Z,13.98
2022-12-05T18:53:11.434Z,10.65
2022-12-05T18:55:58.246Z,15.90
2022-12-05T18:58:24.468Z,16.98
2022-12-05T19:00:51.004Z,14.23
2022-12-05T19:03:17.570Z,15.75
2022-12-05T19:05:44.071Z,11.45
2022-12-05T19:08:10.730Z,10.73
2022-12-05T19:10:37.410Z,9.32
2022-12-05T19:13:04.030Z,11.10
2022-12-05T19:15:30.552Z,9.18
2022-12-05T19:17:57.126Z,9.32
2022-12-05T19:20:23.589Z,9.90
2022-12-05T19:22:50.083Z,9.30
2022-12-05T19:25:16.766Z,8.50
2022-12-05T19:27:43.347Z,10.55
2022-12-05T19:30:10.745Z,9.40
2022-12-05T19:32:40.350Z,9.65
2022-12-05T19:35:07.919Z,8.73
2022-12-05T19:37:35.459Z,9.15
2022-12-05T19:40:01.948Z,10.65
2022-12-05T19:42:29.550Z,10.52
2022-12-05T19:44:56.087Z,11.75
2022-12-05T19:47:22.654Z,9.13
2022-12-05T19:49:49.269Z,9.10
2022-12-05T19:52:18.087Z,8.77
2022-12-05T19:54:45.251Z,8.32
2022-12-05T19:57:12.263Z,8.68
2022-12-05T19:59:38.810Z,8.02
2022-12-05T20:02:05.668Z,8.07
2022-12-05T20:04:32.570Z,8.50
2022-12-05T20:06:59.146Z,8.57
2022-12-05T20:09:25.654Z,8.02
2022-12-05T20:11:55.488Z,7.38
2022-12-05T20:14:23.780Z,40.38
2022-12-05T20:16:50.514Z,13.13
2022-12-05T20:19:17.107Z,13.25
2022-12-05T20:21:44.528Z,11.40
2022-12-05T20:24:11.950Z,10.30
2022-12-05T20:26:40.732Z,9.68
2022-12-05T20:29:08.171Z,8.88
2022-12-05T20:31:39.348Z,9.35
2022-12-05T20:34:07.185Z,9.07
2022-12-05T20:36:34.884Z,10.35
2022-12-05T20:39:06.617Z,9.68
2022-12-05T20:41:33.733Z,9.05
2022-12-05T20:44:02.356Z,10.60
2022-12-05T20:46:29.661Z,10.80
2022-12-05T20:48:59.245Z,13.23
2022-12-05T20:51:31.351Z,12.35
2022-12-05T20:53:59.181Z,10.13
2022-12-05T20:56:31.665Z,9.93
2022-12-05T20:59:00.751Z,9.13
2022-12-05T21:01:28.663Z,8.75
2022-12-05T21:03:55.511Z,11.23
2022-12-05T21:06:34.105Z,10.60
2022-12-05T21:09:02.016Z,9.30
2022-12-05T21:11:30.041Z,10.50
2022-12-05T21:13:58.055Z,11.25
2022-12-05T21:16:25.084Z,9.75
2022-12-05T21:18:52.668Z,9.27
2022-12-05T21:21:22.374Z,12.00
2022-12-05T21:23:53.603Z,9.43
2022-12-05T21:26:21.020Z,13.27
2022-12-05T21:28:47.583Z,9.80
2022-12-05T21:31:16.604Z,8.98
2022-12-05T21:33:47.114Z,9.07
2022-12-05T21:36:13.842Z,8.15
2022-12-05T21:38:40.371Z,8.70
2022-12-05T21:41:07.118Z,8.55
2022-12-05T21:43:34.814Z,9.25
2022-12-05T21:46:01.377Z,8.95
2022-12-05T21:48:27.987Z,8.23
2022-12-05T21:50:54.915Z,9.07
2022-12-05T21:53:21.739Z,9.32
2022-12-05T21:55:48.552Z,9.48
2022-12-05T21:58:15.061Z,8.18
2022-12-05T22:00:42.633Z,8.40
2022-12-05T22:03:14.318Z,8.73
2022-12-05T22:05:40.957Z,8.18
2022-12-05T22:08:07.821Z,8.80
2022-12-05T22:10:35.178Z,8.30
2022-12-05T22:13:02.334Z,8.63
2022-12-05T22:15:28.867Z,7.80
2022-12-05T22:17:55.409Z,8.05
2022-12-05T22:20:21.905Z,8.43
2022-12-05T22:22:48.443Z,9.00
2022-12-05T22:25:15.164Z,8.02
2022-12-05T22:27:41.667Z,7.88
2022-12-05T22:30:08.729Z,8.98
2022-12-05T22:32:35.231Z,8.73
2022-12-05T22:35:04.034Z,9.23
2022-12-05T22:37:31.192Z,9.32
2022-12-05T22:39:58.069Z,8.10
2022-12-05T22:42:26.428Z,8.13
2022-12-05T22:44:52.943Z,8.85
2022-12-05T22:47:19.576Z,8.15
2022-12-05T22:49:46.193Z,8.73
2022-12-05T22:52:12.689Z,8.75
2022-12-05T22:54:39.256Z,8.90
2022-12-05T22:57:05.753Z,7.78
2022-12-05T22:59:32.556Z,8.48
2022-12-05T23:01:59.276Z,8.48
2022-12-05T23:04:25.968Z,8.75
2022-12-05T23:06:52.606Z,7.80
2022-12-05T23:09:20.512Z,8.35
2022-12-05T23:11:49.652Z,9.75
2022-12-05T23:14:16.321Z,7.93
2022-12-05T23:16:42.993Z,8.07
2022-12-05T23:19:09.739Z,9.35
2022-12-05T23:21:38.872Z,8.20
2022-12-05T23:24:08.361Z,8.60
2022-12-05T23:26:37.867Z,9.07
2022-12-05T23:29:04.721Z,9.45
2022-12-05T23:31:31.446Z,8.90
2022-12-05T23:34:02.919Z,9.32
2022-12-05T23:36:30.925Z,8.70
2022-12-05T23:38:57.565Z,9.30
2022-12-05T23:41:25.886Z,9.70
2022-12-05T23:43:52.588Z,9.77
2022-12-05T23:46:25.276Z,9.35
2022-12-05T23:48:52.430Z,8.45
2022-12-05T23:51:29.797Z,9.35
2022-12-05T23:54:01.274Z,9.77
2022-12-05T23:56:30.275Z,10.02
2022-12-05T23:58:57.282Z,8.68
